KNTU/NTU METAR and TAF weather

Enter ICAO airport designator
Station Type Date Time Source
KNTU METAR 2019/04/24 15:56 UTC NOAA

KNTU 241556Z 28007KT 10SM BKN250 26/14 A2985 RMK AO2 SLP111 T02610139


Station Type Date Time Source
KNTU Decoded METAR 2019/04/24 15:56 UTC NOAA

OCEANA, NAVAL AIR STATION, VA, United States (KNTU) 36-49N 076-02W 6M
Apr 24, 2019 - 11:56 AM EDT / 2019.04.24 1556 UTC
Wind: from the W (280 degrees) at 8 MPH (7 KT):0
Visibility: 10 mile(s):0
Sky conditions: mostly cloudy
Temperature: 79.0 F (26.1 C)
Dew Point: 57.0 F (13.9 C)
Relative Humidity: 46%
Pressure (altimeter): 29.85 in. Hg (1010 hPa)
ob: KNTU 241556Z 28007KT 10SM BKN250 26/14 A2985 RMK AO2 SLP111 T02610139
cycle: 16

Station Type Date Time Source
KNTU TAF 2019/04/24 15:07 UTC NOAA

TAF KNTU 2415/2515 27007KT 9999 FEW060 SCT120 BKN250 621206 QNH2981INS
FM241800 VRB06KT 9999 FEW060 SCT120 BKN250 621202 QNH2976INS
FM250000 VRB06KT 9999 FEW020 BKN030 BKN120 621203 QNH2982INS T27/2419Z T16/2509Z FN20008

Example: see airport list